Time,TemperatureF,DewpointF,PressureIn,WindDirection,WindDirectionDegrees,WindSpeedMPH,WindSpeedGustMPH,Humidity,HourlyPrecipIn,Conditions,Clouds,dailyrainin,SoftwareType,DateUTC
2013-06-22 00:01:00,64.3,49.6,30.22,NNE,23,0.0,0.0,59,0.00,,,0.00,WUHU216HW,2013-06-22 04:01:00,
2013-06-22 00:06:00,64.3,49.6,30.22,NNE,23,0.0,0.0,59,0.00,,,0.00,WUHU216HW,2013-06-22 04:06:00,
2013-06-22 00:11:00,64.3,50.0,30.22,NNE,23,0.0,0.0,60,0.00,,,0.00,WUHU216HW,2013-06-22 04:11:00,
2013-06-22 00:16:00,64.1,49.9,30.22,NNE,23,0.0,0.0,60,0.00,,,0.00,WUHU216HW,2013-06-22 04:16:00,
2013-06-22 00:21:00,64.1,50.3,30.22,NNE,23,0.0,0.0,61,0.00,,,0.00,WUHU216HW,2013-06-22 04:21:00,
2013-06-22 00:26:00,64.1,50.8,30.22,NNE,23,0.0,0.0,62,0.00,,,0.00,WUHU216HW,2013-06-22 04:26:00,
2013-06-22 00:31:00,64.3,51.4,30.21,NNE,23,0.0,0.0,63,0.00,,,0.00,WUHU216HW,2013-06-22 04:31:00,
2013-06-22 00:36:00,64.3,52.2,30.22,NNE,23,0.0,0.0,65,0.00,,,0.00,WUHU216HW,2013-06-22 04:36:00,
2013-06-22 00:41:00,64.3,51.8,30.22,NNE,23,0.0,0.0,64,0.00,,,0.00,WUHU216HW,2013-06-22 04:41:00,
2013-06-22 00:46:00,64.4,52.4,30.22,NNE,23,0.0,0.0,65,0.00,,,0.00,WUHU216HW,2013-06-22 04:46:00,
2013-06-22 00:51:00,64.4,52.8,30.22,NNE,23,0.0,0.0,66,0.00,,,0.00,WUHU216HW,2013-06-22 04:51:00,
2013-06-22 00:56:00,64.4,53.3,30.22,NNE,23,0.0,0.0,67,0.00,,,0.00,WUHU216HW,2013-06-22 04:56:00,
2013-06-22 01:01:00,64.4,53.3,30.22,NNE,23,0.0,0.0,67,0.00,,,0.00,WUHU216HW,2013-06-22 05:01:00,
2013-06-22 01:06:00,64.4,53.3,30.22,NNE,23,0.0,0.0,67,0.00,,,0.00,WUHU216HW,2013-06-22 05:06:00,
2013-06-22 01:11:00,64.4,53.6,30.22,NNE,23,0.0,0.0,68,0.00,,,0.00,WUHU216HW,2013-06-22 05:11:00,
2013-06-22 01:16:00,64.4,53.3,30.22,NNE,23,0.0,0.0,67,0.00,,,0.00,WUHU216HW,2013-06-22 05:16:00,
2013-06-22 01:21:00,64.4,53.6,30.21,NNE,23,0.0,0.0,68,0.00,,,0.00,WUHU216HW,2013-06-22 05:21:00,
2013-06-22 01:26:00,64.4,53.6,30.21,NNE,23,0.0,0.0,68,0.00,,,0.00,WUHU216HW,2013-06-22 05:26:00,
2013-06-22 01:31:00,64.4,54.1,30.21,NNE,23,0.0,0.0,69,0.00,,,0.00,WUHU216HW,2013-06-22 05:31:00,
2013-06-22 01:36:00,64.3,54.4,30.21,NNE,23,0.0,0.0,70,0.00,,,0.00,WUHU216HW,2013-06-22 05:36:00,
2013-06-22 01:41:00,64.3,53.9,30.21,NNE,23,0.0,0.0,69,0.00,,,0.00,WUHU216HW,2013-06-22 05:41:00,
2013-06-22 01:46:00,64.3,53.9,30.21,NNE,23,0.0,0.0,69,0.00,,,0.00,WUHU216HW,2013-06-22 05:46:00,
2013-06-22 01:51:00,64.1,53.7,30.20,NNE,23,0.0,0.0,69,0.00,,,0.00,WUHU216HW,2013-06-22 05:51:00,
2013-06-22 01:56:00,64.1,53.7,30.20,NNE,23,0.0,0.0,69,0.00,,,0.00,WUHU216HW,2013-06-22 05:56:00,
2013-06-22 02:01:00,64.1,53.7,30.20,NNE,23,0.0,0.0,69,0.00,,,0.00,WUHU216HW,2013-06-22 06:01:00,
2013-06-22 02:06:00,64.1,54.2,30.20,NNE,23,0.0,0.0,70,0.00,,,0.00,WUHU216HW,2013-06-22 06:06:00,
2013-06-22 02:11:00,64.1,54.2,30.20,NNE,23,0.0,0.0,70,0.00,,,0.00,WUHU216HW,2013-06-22 06:11:00,
2013-06-22 02:16:00,64.1,54.2,30.20,NNE,23,0.0,0.0,70,0.00,,,0.00,WUHU216HW,2013-06-22 06:16:00,
2013-06-22 02:21:00,64.1,54.2,30.19,NNE,23,0.0,0.0,70,0.00,,,0.00,WUHU216HW,2013-06-22 06:21:00,
2013-06-22 02:26:00,64.1,54.2,30.19,NNE,23,0.0,0.0,70,0.00,,,0.00,WUHU216HW,2013-06-22 06:26:00,
2013-06-22 02:31:00,63.9,54.0,30.19,NNE,23,0.0,0.0,70,0.00,,,0.00,WUHU216HW,2013-06-22 06:31:00,
2013-06-22 02:36:00,63.9,54.0,30.19,NNE,23,0.0,0.0,70,0.00,,,0.00,WUHU216HW,2013-06-22 06:36:00,
2013-06-22 02:41:00,63.7,53.8,30.19,NNE,23,0.0,0.0,70,0.00,,,0.00,WUHU216HW,2013-06-22 06:41:00,
2013-06-22 02:46:00,63.7,54.2,30.18,NNE,23,0.0,0.0,71,0.00,,,0.00,WUHU216HW,2013-06-22 06:46:00,
2013-06-22 02:51:00,63.5,54.0,30.18,NNE,23,0.0,0.0,71,0.00,,,0.00,WUHU216HW,2013-06-22 06:51:00,
2013-06-22 02:56:00,63.5,54.0,30.18,NNE,23,0.0,0.0,71,0.00,,,0.00,WUHU216HW,2013-06-22 06:56:00,
2013-06-22 03:01:00,63.4,53.8,30.17,NNE,23,0.0,0.0,71,0.00,,,0.00,WUHU216HW,2013-06-22 07:01:00,
2013-06-22 03:06:00,63.4,54.2,30.17,NNE,23,0.0,0.0,72,0.00,,,0.00,WUHU216HW,2013-06-22 07:06:00,
2013-06-22 03:11:00,63.4,54.5,30.17,NNE,23,0.0,0.0,73,0.00,,,0.00,WUHU216HW,2013-06-22 07:11:00,
2013-06-22 03:16:00,63.2,54.4,30.17,NNE,23,0.0,0.0,73,0.00,,,0.00,WUHU216HW,2013-06-22 07:16:00,
2013-06-22 03:21:00,63.2,54.0,30.17,NNE,23,0.0,0.0,72,0.00,,,0.00,WUHU216HW,2013-06-22 07:21:00,
2013-06-22 03:26:00,63.0,54.2,30.17,NNE,23,0.0,0.0,73,0.00,,,0.00,WUHU216HW,2013-06-22 07:26:00,
2013-06-22 03:31:00,63.0,54.5,30.17,NNE,23,0.0,0.0,74,0.00,,,0.00,WUHU216HW,2013-06-22 07:31:00,
2013-06-22 03:36:00,62.8,54.4,30.17,NNE,23,0.0,0.0,74,0.00,,,0.00,WUHU216HW,2013-06-22 07:36:00,
2013-06-22 03:41:00,62.8,54.4,30.17,NNE,23,0.0,0.0,74,0.00,,,0.00,WUHU216HW,2013-06-22 07:41:00,
2013-06-22 03:46:00,62.6,54.2,30.17,NNE,23,0.0,0.0,74,0.00,,,0.00,WUHU216HW,2013-06-22 07:46:00,
2013-06-22 03:51:00,62.6,54.2,30.17,NNE,23,0.0,0.0,74,0.00,,,0.00,WUHU216HW,2013-06-22 07:51:00,
2013-06-22 03:56:00,62.5,54.0,30.17,NNE,23,0.0,0.0,74,0.00,,,0.00,WUHU216HW,2013-06-22 07:56:00,
2013-06-22 04:01:00,62.5,54.0,30.17,NNE,23,0.0,0.0,74,0.00,,,0.00,WUHU216HW,2013-06-22 08:01:00,
2013-06-22 04:06:00,62.5,54.0,30.16,NNE,23,0.0,0.0,74,0.00,,,0.00,WUHU216HW,2013-06-22 08:06:00,
2013-06-22 04:11:00,62.5,54.0,30.16,NNE,23,0.0,0.0,74,0.00,,,0.00,WUHU216HW,2013-06-22 08:11:00,
2013-06-22 04:16:00,62.5,54.0,30.17,NNE,23,0.0,0.0,74,0.00,,,0.00,WUHU216HW,2013-06-22 08:16:00,
2013-06-22 04:21:00,62.5,54.0,30.17,NNE,23,0.0,0.0,74,0.00,,,0.00,WUHU216HW,2013-06-22 08:21:00,
2013-06-22 04:26:00,62.5,54.0,30.17,NNE,23,0.0,0.0,74,0.00,,,0.00,WUHU216HW,2013-06-22 08:26:00,
2013-06-22 04:31:00,62.5,54.4,30.16,NNE,23,0.0,0.0,75,0.00,,,0.00,WUHU216HW,2013-06-22 08:31:00,
2013-06-22 04:36:00,62.3,54.2,30.16,NNE,23,0.0,0.0,75,0.00,,,0.00,WUHU216HW,2013-06-22 08:36:00,
2013-06-22 04:41:00,62.3,54.2,30.16,NNE,23,0.0,0.0,75,0.00,,,0.00,WUHU216HW,2013-06-22 08:41:00,
2013-06-22 04:46:00,62.3,54.2,30.16,NNE,23,0.0,0.0,75,0.00,,,0.00,WUHU216HW,2013-06-22 08:46:00,
2013-06-22 04:51:00,62.3,54.2,30.16,NNE,23,0.0,0.0,75,0.00,,,0.00,WUHU216HW,2013-06-22 08:51:00,
2013-06-22 04:56:00,62.3,54.5,30.16,NNE,23,0.0,0.0,76,0.00,,,0.00,WUHU216HW,2013-06-22 08:56:00,
2013-06-22 05:01:00,62.3,54.2,30.16,NNE,23,0.0,0.0,75,0.00,,,0.00,WUHU216HW,2013-06-22 09:01:00,
2013-06-22 05:06:00,62.3,54.2,30.16,NNE,23,0.0,0.0,75,0.00,,,0.00,WUHU216HW,2013-06-22 09:06:00,
2013-06-22 05:11:00,62.1,54.1,30.16,NNE,23,0.0,0.0,75,0.00,,,0.00,WUHU216HW,2013-06-22 09:11:00,
2013-06-22 05:16:00,62.1,54.5,30.16,NNE,23,0.0,0.0,76,0.00,,,0.00,WUHU216HW,2013-06-22 09:16:00,
2013-06-22 05:21:00,61.9,54.3,30.15,NNE,23,0.0,0.0,76,0.00,,,0.00,WUHU216HW,2013-06-22 09:21:00,
2013-06-22 05:26:00,61.9,54.3,30.15,NNE,23,0.0,0.0,76,0.00,,,0.00,WUHU216HW,2013-06-22 09:26:00,
2013-06-22 05:31:00,61.9,54.3,30.15,NNE,23,0.0,0.0,76,0.00,,,0.00,WUHU216HW,2013-06-22 09:31:00,
2013-06-22 05:36:00,61.9,54.3,30.15,NNE,23,0.0,0.0,76,0.00,,,0.00,WUHU216HW,2013-06-22 09:36:00,
2013-06-22 05:41:00,61.9,54.3,30.16,NNE,23,0.0,0.0,76,0.00,,,0.00,WUHU216HW,2013-06-22 09:41:00,
2013-06-22 05:46:00,61.9,54.3,30.15,NNE,23,0.0,0.0,76,0.00,,,0.00,WUHU216HW,2013-06-22 09:46:00,
2013-06-22 05:51:00,61.9,54.6,30.15,NNE,23,0.0,0.0,77,0.00,,,0.00,WUHU216HW,2013-06-22 09:51:00,
2013-06-22 05:56:00,61.9,55.0,30.15,NNE,23,0.0,0.0,78,0.00,,,0.00,WUHU216HW,2013-06-22 09:56:00,
2013-06-22 06:01:00,61.9,54.6,30.15,NNE,23,0.0,0.0,77,0.00,,,0.00,WUHU216HW,2013-06-22 10:01:00,
2013-06-22 06:06:00,62.1,54.8,30.15,NNE,23,0.0,0.0,77,0.00,,,0.00,WUHU216HW,2013-06-22 10:06:00,
2013-06-22 06:11:00,62.3,54.9,30.15,NNE,23,0.0,0.0,77,0.00,,,0.00,WUHU216HW,2013-06-22 10:11:00,
2013-06-22 06:16:00,62.3,54.9,30.15,NNE,23,0.0,0.0,77,0.00,,,0.00,WUHU216HW,2013-06-22 10:16:00,
2013-06-22 06:21:00,62.6,55.3,30.15,NNE,23,0.0,0.0,77,0.00,,,0.00,WUHU216HW,2013-06-22 10:21:00,
2013-06-22 06:26:00,63.4,56.0,30.15,NNE,23,0.0,0.0,77,0.00,,,0.00,WUHU216HW,2013-06-22 10:26:00,
2013-06-22 06:31:00,63.9,56.5,30.15,NNE,23,0.0,0.0,77,0.00,,,0.00,WUHU216HW,2013-06-22 10:31:00,
2013-06-22 06:36:00,64.4,57.1,30.15,NNE,23,0.0,0.0,77,0.00,,,0.00,WUHU216HW,2013-06-22 10:36:00,
2013-06-22 06:41:00,65.7,57.9,30.15,NNE,23,0.0,0.0,76,0.00,,,0.00,WUHU216HW,2013-06-22 10:41:00,
2013-06-22 06:46:00,67.0,58.4,30.15,NNE,23,0.0,0.0,74,0.00,,,0.00,WUHU216HW,2013-06-22 10:46:00,
2013-06-22 06:51:00,67.9,58.5,30.15,NNE,23,0.0,0.0,72,0.00,,,0.00,WUHU216HW,2013-06-22 10:51:00,
2013-06-22 06:56:00,68.8,59.0,30.15,NNE,23,0.0,0.0,71,0.00,,,0.00,WUHU216HW,2013-06-22 10:56:00,
2013-06-22 07:01:00,69.7,59.4,30.15,SW,225,0.0,0.0,70,0.00,,,0.00,WUHU216HW,2013-06-22 11:01:00,
2013-06-22 07:06:00,70.6,59.9,30.15,SW,225,0.0,0.0,69,0.00,,,0.00,WUHU216HW,2013-06-22 11:06:00,
2013-06-22 07:11:00,72.0,60.8,30.15,SW,225,0.0,0.0,68,0.00,,,0.00,WUHU216HW,2013-06-22 11:11:00,
2013-06-22 07:16:00,73.3,62.1,30.15,WSW,248,0.0,0.0,68,0.00,,,0.00,WUHU216HW,2013-06-22 11:16:00,
2013-06-22 07:21:00,74.5,62.8,30.15,SW,225,0.0,0.0,67,0.00,,,0.00,WUHU216HW,2013-06-22 11:21:00,
2013-06-22 07:26:00,75.8,63.2,30.16,SW,225,0.0,0.0,65,0.00,,,0.00,WUHU216HW,2013-06-22 11:26:00,
2013-06-22 07:31:00,76.3,63.2,30.16,West,270,0.0,0.0,64,0.00,,,0.00,WUHU216HW,2013-06-22 11:31:00,
2013-06-22 07:36:00,76.3,63.2,30.15,WSW,248,0.0,0.0,64,0.00,,,0.00,WUHU216HW,2013-06-22 11:36:00,
2013-06-22 07:41:00,77.8,63.7,30.16,SW,225,0.0,0.0,62,0.00,,,0.00,WUHU216HW,2013-06-22 11:41:00,
2013-06-22 07:46:00,79.2,65.1,30.16,WSW,248,0.0,0.0,62,0.00,,,0.00,WUHU216HW,2013-06-22 11:46:00,
2013-06-22 07:51:00,80.1,65.1,30.16,SW,225,0.0,0.0,60,0.00,,,0.00,WUHU216HW,2013-06-22 11:51:00,
2013-06-22 07:56:00,79.6,63.6,30.16,WSW,248,0.0,0.0,58,0.00,,,0.00,WUHU216HW,2013-06-22 11:56:00,
2013-06-22 08:01:00,78.5,63.0,30.16,SW,225,0.0,0.0,59,0.00,,,0.00,WUHU216HW,2013-06-22 12:01:00,
2013-06-22 08:06:00,77.0,62.1,30.16,WSW,248,0.0,0.0,60,0.00,,,0.00,WUHU216HW,2013-06-22 12:06:00,
2013-06-22 08:11:00,76.0,62.0,30.17,West,270,0.0,0.0,62,0.00,,,0.00,WUHU216HW,2013-06-22 12:11:00,
2013-06-22 08:16:00,75.4,62.8,30.17,SW,225,0.0,0.0,65,0.00,,,0.00,WUHU216HW,2013-06-22 12:16:00,
2013-06-22 08:21:00,75.2,62.6,30.17,WSW,248,0.0,0.0,65,0.00,,,0.00,WUHU216HW,2013-06-22 12:21:00,
2013-06-22 08:26:00,74.9,62.3,30.17,SW,225,0.0,0.0,65,0.00,,,0.00,WUHU216HW,2013-06-22 12:26:00,
2013-06-22 08:31:00,75.1,62.9,30.17,SW,225,0.0,0.0,66,0.00,,,0.00,WUHU216HW,2013-06-22 12:31:00,
2013-06-22 08:36:00,75.2,63.1,30.17,West,270,0.0,0.0,66,0.00,,,0.00,WUHU216HW,2013-06-22 12:36:00,
2013-06-22 08:41:00,75.1,62.9,30.17,WSW,248,0.0,0.0,66,0.00,,,0.00,WUHU216HW,2013-06-22 12:41:00,
2013-06-22 08:46:00,74.9,62.7,30.17,WSW,248,0.0,0.0,66,0.00,,,0.00,WUHU216HW,2013-06-22 12:46:00,
2013-06-22 08:51:00,74.9,63.2,30.17,SW,225,0.0,0.0,67,0.00,,,0.00,WUHU216HW,2013-06-22 12:51:00,
2013-06-22 08:56:00,75.1,63.4,30.17,WSW,248,0.0,0.0,67,0.00,,,0.00,WUHU216HW,2013-06-22 12:56:00,
2013-06-22 09:01:00,75.2,63.6,30.17,WSW,248,0.0,0.0,67,0.00,,,0.00,WUHU216HW,2013-06-22 13:01:00,
2013-06-22 09:07:00,75.8,64.0,30.17,SW,225,0.0,0.0,67,0.00,,,0.00,WUHU216HW,2013-06-22 13:07:00,
2013-06-22 09:12:00,76.3,64.1,30.17,SSW,203,0.0,0.0,66,0.00,,,0.00,WUHU216HW,2013-06-22 13:12:00,
2013-06-22 09:17:00,77.0,64.8,30.17,WSW,248,0.0,0.0,66,0.00,,,0.00,WUHU216HW,2013-06-22 13:17:00,
2013-06-22 09:22:00,77.6,64.0,30.17,WSW,248,0.0,0.0,63,0.00,,,0.00,WUHU216HW,2013-06-22 13:22:00,
2013-06-22 09:27:00,77.4,63.8,30.17,SW,225,0.0,0.0,63,0.00,,,0.00,WUHU216HW,2013-06-22 13:27:00,
2013-06-22 09:32:00,77.2,64.1,30.17,WSW,248,0.0,0.0,64,0.00,,,0.00,WUHU216HW,2013-06-22 13:32:00,
2013-06-22 09:37:00,77.4,64.3,30.17,SW,225,0.0,0.0,64,0.00,,,0.00,WUHU216HW,2013-06-22 13:37:00,
2013-06-22 09:42:00,78.1,65.3,30.17,WSW,248,0.0,0.0,65,0.00,,,0.00,WUHU216HW,2013-06-22 13:42:00,
2013-06-22 09:47:00,78.5,64.9,30.17,SW,225,0.0,0.0,63,0.00,,,0.00,WUHU216HW,2013-06-22 13:47:00,
2013-06-22 09:52:00,78.8,65.2,30.17,WSW,248,0.0,0.0,63,0.00,,,0.00,WUHU216HW,2013-06-22 13:52:00,
2013-06-22 09:57:00,79.6,65.4,30.17,SW,225,0.0,0.0,62,0.00,,,0.00,WUHU216HW,2013-06-22 13:57:00,
2013-06-22 10:02:00,79.7,64.2,30.17,SW,225,0.0,0.0,59,0.00,,,0.00,WUHU216HW,2013-06-22 14:02:00,
2013-06-22 10:07:00,79.4,63.9,30.17,SW,225,0.0,0.0,59,0.00,,,0.00,WUHU216HW,2013-06-22 14:07:00,
2013-06-22 10:12:00,79.7,65.2,30.17,West,270,0.0,0.0,61,0.00,,,0.00,WUHU216HW,2013-06-22 14:12:00,
2013-06-22 10:17:00,80.3,65.2,30.16,SE,135,0.0,0.0,60,0.00,,,0.00,WUHU216HW,2013-06-22 14:17:00,
2013-06-22 10:22:00,80.5,64.8,30.16,SSW,203,0.0,0.0,59,0.00,,,0.00,WUHU216HW,2013-06-22 14:22:00,
2013-06-22 10:27:00,80.8,64.6,30.16,SW,225,0.0,0.0,58,0.00,,,0.00,WUHU216HW,2013-06-22 14:27:00,
2013-06-22 10:32:00,81.4,64.6,30.16,SW,225,0.0,0.0,57,0.00,,,0.00,WUHU216HW,2013-06-22 14:32:00,
2013-06-22 10:37:00,81.9,65.1,30.16,SSW,203,0.0,0.0,57,0.00,,,0.00,WUHU216HW,2013-06-22 14:37:00,
2013-06-22 10:42:00,82.4,65.6,30.15,SW,225,0.0,0.0,57,0.00,,,0.00,WUHU216HW,2013-06-22 14:42:00,
2013-06-22 10:47:00,82.8,64.9,30.15,WSW,248,0.0,0.0,55,0.00,,,0.00,WUHU216HW,2013-06-22 14:47:00,
2013-06-22 10:52:00,82.4,64.5,30.15,SW,225,0.0,0.0,55,0.00,,,0.00,WUHU216HW,2013-06-22 14:52:00,
2013-06-22 10:57:00,82.4,64.0,30.15,WSW,248,0.0,0.0,54,0.00,,,0.00,WUHU216HW,2013-06-22 14:57:00,
2013-06-22 11:02:00,82.4,64.5,30.15,SW,225,0.0,0.0,55,0.00,,,0.00,WUHU216HW,2013-06-22 15:02:00,
2013-06-22 11:07:00,82.6,64.7,30.15,SSW,203,0.0,0.0,55,0.00,,,0.00,WUHU216HW,2013-06-22 15:07:00,
2013-06-22 11:12:00,82.8,65.4,30.15,SW,225,0.0,0.0,56,0.00,,,0.00,WUHU216HW,2013-06-22 15:12:00,
2013-06-22 11:17:00,83.2,65.3,30.15,WSW,248,0.0,0.0,55,0.00,,,0.00,WUHU216HW,2013-06-22 15:17:00,
2013-06-22 11:22:00,83.2,65.3,30.15,SW,225,0.0,0.0,55,0.00,,,0.00,WUHU216HW,2013-06-22 15:22:00,
2013-06-22 11:27:00,83.2,65.3,30.15,SW,225,0.0,0.0,55,0.00,,,0.00,WUHU216HW,2013-06-22 15:27:00,
2013-06-22 11:32:00,83.2,65.3,30.15,SSW,203,0.0,0.0,55,0.00,,,0.00,WUHU216HW,2013-06-22 15:32:00,
2013-06-22 11:37:00,83.2,65.8,30.15,SSW,203,0.0,0.0,56,0.00,,,0.00,WUHU216HW,2013-06-22 15:37:00,
2013-06-22 11:42:00,83.3,66.0,30.15,WSW,248,0.0,0.0,56,0.00,,,0.00,WUHU216HW,2013-06-22 15:42:00,
2013-06-22 11:47:00,83.3,64.9,30.16,NW,315,0.0,0.0,54,0.00,,,0.00,WUHU216HW,2013-06-22 15:47:00,
2013-06-22 11:52:00,82.8,64.9,30.15,SW,225,0.0,0.0,55,0.00,,,0.00,WUHU216HW,2013-06-22 15:52:00,
2013-06-22 11:57:00,82.6,65.3,30.16,WSW,248,0.0,0.0,56,0.00,,,0.00,WUHU216HW,2013-06-22 15:57:00,
2013-06-22 12:02:00,82.8,65.4,30.16,WSW,248,0.0,0.0,56,0.00,,,0.00,WUHU216HW,2013-06-22 16:02:00,
2013-06-22 12:07:00,82.6,65.3,30.16,SSW,203,0.0,0.0,56,0.00,,,0.00,WUHU216HW,2013-06-22 16:07:00,
2013-06-22 12:12:00,82.3,65.4,30.16,SSW,203,0.0,0.0,57,0.00,,,0.00,WUHU216HW,2013-06-22 16:12:00,
2013-06-22 12:17:00,82.3,66.0,30.16,SW,225,0.0,0.0,58,0.00,,,0.00,WUHU216HW,2013-06-22 16:17:00,
2013-06-22 12:22:00,82.1,66.3,30.16,WSW,248,0.0,0.0,59,0.00,,,0.00,WUHU216HW,2013-06-22 16:22:00,
2013-06-22 12:27:00,82.4,66.1,30.16,West,270,0.0,0.0,58,0.00,,,0.00,WUHU216HW,2013-06-22 16:27:00,
2013-06-22 12:32:00,82.8,66.0,30.16,SW,225,0.0,0.0,57,0.00,,,0.00,WUHU216HW,2013-06-22 16:32:00,
2013-06-22 12:37:00,82.6,66.2,30.15,SSW,203,0.0,0.0,58,0.00,,,0.00,WUHU216HW,2013-06-22 16:37:00,
2013-06-22 12:42:00,82.8,66.4,30.15,SW,225,0.0,0.0,58,0.00,,,0.00,WUHU216HW,2013-06-22 16:42:00,
2013-06-22 12:47:00,82.4,65.6,30.15,SW,225,0.0,0.0,57,0.00,,,0.00,WUHU216HW,2013-06-22 16:47:00,
2013-06-22 12:52:00,82.4,66.1,30.15,WSW,248,0.0,0.0,58,0.00,,,0.00,WUHU216HW,2013-06-22 16:52:00,
2013-06-22 12:57:00,82.3,66.4,30.15,SW,225,0.0,0.0,59,0.00,,,0.00,WUHU216HW,2013-06-22 16:57:00,
2013-06-22 13:02:00,82.4,66.6,30.14,WSW,248,0.0,0.0,59,0.00,,,0.00,WUHU216HW,2013-06-22 17:02:00,
2013-06-22 13:07:00,82.8,67.0,30.14,West,270,0.0,0.0,59,0.00,,,0.00,WUHU216HW,2013-06-22 17:07:00,
2013-06-22 13:12:00,83.2,66.8,30.14,WSW,248,0.0,0.0,58,0.00,,,0.00,WUHU216HW,2013-06-22 17:12:00,
2013-06-22 13:17:00,83.9,67.5,30.14,SW,225,0.0,0.0,58,0.00,,,0.00,WUHU216HW,2013-06-22 17:17:00,
2013-06-22 13:22:00,83.9,67.1,30.14,WSW,248,0.0,0.0,57,0.00,,,0.00,WUHU216HW,2013-06-22 17:22:00,
2013-06-22 13:27:00,83.2,65.8,30.14,WSW,248,0.0,0.0,56,0.00,,,0.00,WUHU216HW,2013-06-22 17:27:00,
2013-06-22 13:32:00,82.4,66.1,30.13,SW,225,0.0,0.0,58,0.00,,,0.00,WUHU216HW,2013-06-22 17:32:00,
2013-06-22 13:37:00,82.1,66.3,30.13,SW,225,0.0,0.0,59,0.00,,,0.00,WUHU216HW,2013-06-22 17:37:00,
2013-06-22 13:42:00,82.8,66.4,30.12,SSW,203,0.0,0.0,58,0.00,,,0.00,WUHU216HW,2013-06-22 17:42:00,
2013-06-22 13:47:00,83.3,67.5,30.12,SW,225,0.0,0.0,59,0.00,,,0.00,WUHU216HW,2013-06-22 17:47:00,
2013-06-22 13:52:00,83.7,67.9,30.12,SSW,203,0.0,0.0,59,0.00,,,0.00,WUHU216HW,2013-06-22 17:52:00,
2013-06-22 13:57:00,83.9,67.5,30.12,WSW,248,0.0,0.0,58,0.00,,,0.00,WUHU216HW,2013-06-22 17:57:00,
2013-06-22 14:02:00,83.5,67.1,30.12,SW,225,0.0,0.0,58,0.00,,,0.00,WUHU216HW,2013-06-22 18:02:00,
2013-06-22 14:07:00,83.3,66.5,30.13,West,270,0.0,0.0,57,0.00,,,0.00,WUHU216HW,2013-06-22 18:07:00,
2013-06-22 14:12:00,83.0,66.6,30.12,SW,225,0.0,0.0,58,0.00,,,0.00,WUHU216HW,2013-06-22 18:12:00,
2013-06-22 14:17:00,83.0,66.6,30.12,WNW,293,0.0,0.0,58,0.00,,,0.00,WUHU216HW,2013-06-22 18:17:00,
2013-06-22 14:22:00,82.8,66.4,30.13,SW,225,0.0,0.0,58,0.00,,,0.00,WUHU216HW,2013-06-22 18:22:00,
2013-06-22 14:27:00,82.4,66.6,30.13,SW,225,0.0,0.0,59,0.00,,,0.00,WUHU216HW,2013-06-22 18:27:00,
2013-06-22 14:32:00,82.4,66.6,30.13,WSW,248,0.0,0.0,59,0.00,,,0.00,WUHU216HW,2013-06-22 18:32:00,
2013-06-22 14:37:00,82.8,67.0,30.13,SW,225,0.0,0.0,59,0.00,,,0.00,WUHU216HW,2013-06-22 18:37:00,
2013-06-22 14:42:00,83.0,66.6,30.13,WSW,248,0.0,0.0,58,0.00,,,0.00,WUHU216HW,2013-06-22 18:42:00,
2013-06-22 14:47:00,82.8,66.4,30.13,SW,225,0.0,0.0,58,0.00,,,0.00,WUHU216HW,2013-06-22 18:47:00,
2013-06-22 14:52:00,82.4,66.1,30.13,SW,225,0.0,0.0,58,0.00,,,0.00,WUHU216HW,2013-06-22 18:52:00,
2013-06-22 14:57:00,82.4,66.1,30.13,SW,225,0.0,0.0,58,0.00,,,0.00,WUHU216HW,2013-06-22 18:57:00,
2013-06-22 15:02:00,82.4,66.6,30.13,SW,225,0.0,0.0,59,0.00,,,0.00,WUHU216HW,2013-06-22 19:02:00,
2013-06-22 15:07:00,82.1,65.8,30.13,SW,225,0.0,0.0,58,0.00,,,0.00,WUHU216HW,2013-06-22 19:07:00,
2013-06-22 15:12:00,81.9,65.6,30.13,SW,225,0.0,0.0,58,0.00,,,0.00,WUHU216HW,2013-06-22 19:12:00,
2013-06-22 15:17:00,81.9,66.2,30.13,SW,225,0.0,0.0,59,0.00,,,0.00,WUHU216HW,2013-06-22 19:17:00,
2013-06-22 15:22:00,82.1,65.8,30.12,SW,225,0.0,0.0,58,0.00,,,0.00,WUHU216HW,2013-06-22 19:22:00,
2013-06-22 15:27:00,83.0,67.1,30.12,West,270,0.0,0.0,59,0.00,,,0.00,WUHU216HW,2013-06-22 19:27:00,
2013-06-22 15:32:00,83.9,67.5,30.12,SSW,203,0.0,0.0,58,0.00,,,0.00,WUHU216HW,2013-06-22 19:32:00,
2013-06-22 15:37:00,84.2,67.9,30.12,SW,225,0.0,0.0,58,0.00,,,0.00,WUHU216HW,2013-06-22 19:37:00,
2013-06-22 15:42:00,85.0,68.6,30.11,SW,225,0.0,0.0,58,0.00,,,0.00,WUHU216HW,2013-06-22 19:42:00,
2013-06-22 15:47:00,85.5,68.5,30.11,SW,225,0.0,0.0,57,0.00,,,0.00,WUHU216HW,2013-06-22 19:47:00,
2013-06-22 15:52:00,85.5,68.5,30.11,SE,135,0.0,0.0,57,0.00,,,0.00,WUHU216HW,2013-06-22 19:52:00,
2013-06-22 15:57:00,85.0,68.1,30.11,SW,225,0.0,0.0,57,0.00,,,0.00,WUHU216HW,2013-06-22 19:57:00,
2013-06-22 16:02:00,84.8,69.0,30.11,ESE,113,0.0,0.0,59,0.00,,,0.00,WUHU216HW,2013-06-22 20:02:00,
2013-06-22 16:07:00,84.8,69.4,30.10,SW,225,0.0,0.0,60,0.00,,,0.00,WUHU216HW,2013-06-22 20:07:00,
2013-06-22 16:12:00,85.0,69.0,30.10,WSW,248,0.0,0.0,59,0.00,,,0.00,WUHU216HW,2013-06-22 20:12:00,
2013-06-22 16:17:00,85.5,69.6,30.10,WNW,293,0.0,0.0,59,0.00,,,0.00,WUHU216HW,2013-06-22 20:17:00,
2013-06-22 16:22:00,85.7,69.2,30.10,SSW,203,0.0,0.0,58,0.00,,,0.00,WUHU216HW,2013-06-22 20:22:00,
2013-06-22 16:27:00,85.3,69.4,30.09,West,270,0.0,0.0,59,0.00,,,0.00,WUHU216HW,2013-06-22 20:27:00,
2013-06-22 16:32:00,85.1,68.7,30.09,West,270,0.0,0.0,58,0.00,,,0.00,WUHU216HW,2013-06-22 20:32:00,
2013-06-22 16:37:00,85.5,69.0,30.09,South,180,0.0,0.0,58,0.00,,,0.00,WUHU216HW,2013-06-22 20:37:00,
2013-06-22 16:42:00,85.9,68.9,30.09,SW,225,0.0,0.0,57,0.00,,,0.00,WUHU216HW,2013-06-22 20:42:00,
2013-06-22 16:47:00,85.7,68.1,30.09,WSW,248,0.0,0.0,56,0.00,,,0.00,WUHU216HW,2013-06-22 20:47:00,
2013-06-22 16:52:00,85.5,69.0,30.08,SW,225,0.0,0.0,58,0.00,,,0.00,WUHU216HW,2013-06-22 20:52:00,
2013-06-22 16:57:00,85.3,68.9,30.08,WSW,248,0.0,0.0,58,0.00,,,0.00,WUHU216HW,2013-06-22 20:57:00,
2013-06-22 17:02:00,85.3,68.9,30.08,SSW,203,0.0,0.0,58,0.00,,,0.00,WUHU216HW,2013-06-22 21:02:00,
2013-06-22 17:07:00,85.9,69.4,30.08,SSW,203,0.0,0.0,58,0.00,,,0.00,WUHU216HW,2013-06-22 21:07:00,
2013-06-22 17:12:00,86.6,69.5,30.07,West,270,0.0,0.0,57,0.00,,,0.00,WUHU216HW,2013-06-22 21:12:00,
2013-06-22 17:17:00,86.4,68.9,30.08,WSW,248,0.0,0.0,56,0.00,,,0.00,WUHU216HW,2013-06-22 21:17:00,
2013-06-22 17:22:00,86.4,69.3,30.08,SW,225,0.0,0.0,57,0.00,,,0.00,WUHU216HW,2013-06-22 21:22:00,
2013-06-22 17:27:00,86.4,68.9,30.07,SSW,203,0.0,0.0,56,0.00,,,0.00,WUHU216HW,2013-06-22 21:27:00,
2013-06-22 17:32:00,86.2,69.2,30.07,WSW,248,0.0,0.0,57,0.00,,,0.00,WUHU216HW,2013-06-22 21:32:00,
2013-06-22 17:37:00,86.2,69.2,30.07,SW,225,0.0,0.0,57,0.00,,,0.00,WUHU216HW,2013-06-22 21:37:00,
2013-06-22 17:42:00,85.9,68.3,30.07,West,270,0.0,0.0,56,0.00,,,0.00,WUHU216HW,2013-06-22 21:42:00,
2013-06-22 17:47:00,85.5,68.5,30.07,SSW,203,0.0,0.0,57,0.00,,,0.00,WUHU216HW,2013-06-22 21:47:00,
2013-06-22 17:52:00,85.1,68.7,30.07,SW,225,0.0,0.0,58,0.00,,,0.00,WUHU216HW,2013-06-22 21:52:00,
2013-06-22 17:57:00,85.3,69.4,30.06,SW,225,0.0,0.0,59,0.00,,,0.00,WUHU216HW,2013-06-22 21:57:00,
2013-06-22 18:02:00,85.7,69.2,30.07,SW,225,0.0,0.0,58,0.00,,,0.00,WUHU216HW,2013-06-22 22:02:00,
2013-06-22 18:07:00,85.7,68.7,30.06,NW,315,0.0,0.0,57,0.00,,,0.00,WUHU216HW,2013-06-22 22:07:00,
2013-06-22 18:12:00,85.3,68.3,30.06,SW,225,0.0,0.0,57,0.00,,,0.00,WUHU216HW,2013-06-22 22:12:00,
2013-06-22 18:17:00,85.0,68.6,30.06,SW,225,0.0,0.0,58,0.00,,,0.00,WUHU216HW,2013-06-22 22:17:00,
2013-06-22 18:22:00,85.0,69.0,30.06,SSW,203,0.0,0.0,59,0.00,,,0.00,WUHU216HW,2013-06-22 22:22:00,
2013-06-22 18:27:00,84.8,69.0,30.06,SSW,203,0.0,0.0,59,0.00,,,0.00,WUHU216HW,2013-06-22 22:27:00,
2013-06-22 18:32:00,84.6,68.8,30.06,WSW,248,0.0,0.0,59,0.00,,,0.00,WUHU216HW,2013-06-22 22:32:00,
2013-06-22 18:37:00,85.0,69.0,30.06,WSW,248,0.0,0.0,59,0.00,,,0.00,WUHU216HW,2013-06-22 22:37:00,
2013-06-22 18:42:00,85.3,68.9,30.06,SSW,203,0.0,0.0,58,0.00,,,0.00,WUHU216HW,2013-06-22 22:42:00,
2013-06-22 18:47:00,85.1,68.7,30.06,WSW,248,0.0,0.0,58,0.00,,,0.00,WUHU216HW,2013-06-22 22:47:00,
2013-06-22 18:52:00,84.8,69.0,30.06,SSW,203,0.0,0.0,59,0.00,,,0.00,WUHU216HW,2013-06-22 22:52:00,
2013-06-22 18:57:00,84.2,68.9,30.06,WSW,248,0.0,0.0,60,0.00,,,0.00,WUHU216HW,2013-06-22 22:57:00,
2013-06-22 19:02:00,83.9,69.0,30.06,WSW,248,0.0,0.0,61,0.00,,,0.00,WUHU216HW,2013-06-22 23:02:00,
2013-06-22 19:07:00,83.9,69.0,30.07,South,180,0.0,0.0,61,0.00,,,0.00,WUHU216HW,2013-06-22 23:07:00,
2013-06-22 19:12:00,83.9,69.0,30.07,West,270,0.0,0.0,61,0.00,,,0.00,WUHU216HW,2013-06-22 23:12:00,
2013-06-22 19:17:00,83.7,69.3,30.06,WSW,248,0.0,0.0,62,0.00,,,0.00,WUHU216HW,2013-06-22 23:17:00,
2013-06-22 19:22:00,83.7,69.3,30.06,SW,225,0.0,0.0,62,0.00,,,0.00,WUHU216HW,2013-06-22 23:22:00,
2013-06-22 19:27:00,83.5,69.1,30.07,WSW,248,0.0,0.0,62,0.00,,,0.00,WUHU216HW,2013-06-22 23:27:00,
2013-06-22 19:32:00,83.5,69.1,30.07,SW,225,0.0,0.0,62,0.00,,,0.00,WUHU216HW,2013-06-22 23:32:00,
2013-06-22 19:37:00,83.3,68.9,30.07,SW,225,0.0,0.0,62,0.00,,,0.00,WUHU216HW,2013-06-22 23:37:00,
2013-06-22 19:42:00,83.0,69.0,30.07,SW,225,0.0,0.0,63,0.00,,,0.00,WUHU216HW,2013-06-22 23:42:00,
2013-06-22 19:47:00,82.8,68.4,30.07,WSW,248,0.0,0.0,62,0.00,,,0.00,WUHU216HW,2013-06-22 23:47:00,
2013-06-22 19:52:00,82.6,68.2,30.07,WSW,248,0.0,0.0,62,0.00,,,0.00,WUHU216HW,2013-06-22 23:52:00,
2013-06-22 19:57:00,82.6,68.2,30.07,SW,225,0.0,0.0,62,0.00,,,0.00,WUHU216HW,2013-06-22 23:57:00,
2013-06-22 20:02:00,82.4,68.5,30.07,SW,225,0.0,0.0,63,0.00,,,0.00,WUHU216HW,2013-06-23 00:02:00,
2013-06-22 20:07:00,82.3,68.3,30.07,SW,225,0.0,0.0,63,0.00,,,0.00,WUHU216HW,2013-06-23 00:07:00,
2013-06-22 20:12:00,82.1,68.1,30.07,SW,225,0.0,0.0,63,0.00,,,0.00,WUHU216HW,2013-06-23 00:12:00,
2013-06-22 20:17:00,81.7,67.9,30.07,SW,225,0.0,0.0,63,0.00,,,0.00,WUHU216HW,2013-06-23 00:17:00,
2013-06-22 20:22:00,81.4,68.0,30.08,SSW,203,0.0,0.0,64,0.00,,,0.00,WUHU216HW,2013-06-23 00:22:00,
2013-06-22 20:27:00,81.2,67.8,30.08,SW,225,0.0,0.0,64,0.00,,,0.00,WUHU216HW,2013-06-23 00:27:00,
2013-06-22 20:32:00,81.0,67.7,30.08,SW,225,0.0,0.0,64,0.00,,,0.00,WUHU216HW,2013-06-23 00:32:00,
2013-06-22 20:37:00,80.8,67.5,30.08,SW,225,0.0,0.0,64,0.00,,,0.00,WUHU216HW,2013-06-23 00:37:00,
2013-06-22 20:42:00,80.8,68.0,30.08,West,270,0.0,0.0,65,0.00,,,0.00,WUHU216HW,2013-06-23 00:42:00,
2013-06-22 20:47:00,80.6,67.8,30.08,SW,225,0.0,0.0,65,0.00,,,0.00,WUHU216HW,2013-06-23 00:47:00,
2013-06-22 20:52:00,80.5,67.6,30.07,SW,225,0.0,0.0,65,0.00,,,0.00,WUHU216HW,2013-06-23 00:52:00,
2013-06-22 20:57:00,80.3,67.9,30.07,WSW,248,0.0,0.0,66,0.00,,,0.00,WUHU216HW,2013-06-23 00:57:00,
2013-06-22 21:02:00,80.3,67.4,30.08,West,270,0.0,0.0,65,0.00,,,0.00,WUHU216HW,2013-06-23 01:02:00,
2013-06-22 21:07:00,80.1,67.7,30.08,West,270,0.0,0.0,66,0.00,,,0.00,WUHU216HW,2013-06-23 01:07:00,
2013-06-22 21:12:00,79.9,67.5,30.08,West,270,0.0,0.0,66,0.00,,,0.00,WUHU216HW,2013-06-23 01:12:00,
2013-06-22 21:17:00,79.7,67.3,30.08,SW,225,0.0,0.0,66,0.00,,,0.00,WUHU216HW,2013-06-23 01:17:00,
2013-06-22 21:22:00,79.6,67.1,30.08,SW,225,0.0,0.0,66,0.00,,,0.00,WUHU216HW,2013-06-23 01:22:00,
2013-06-22 21:27:00,79.6,67.1,30.07,WSW,248,0.0,0.0,66,0.00,,,0.00,WUHU216HW,2013-06-23 01:27:00,
2013-06-22 21:32:00,79.2,66.9,30.08,SW,225,0.0,0.0,66,0.00,,,0.00,WUHU216HW,2013-06-23 01:32:00,
2013-06-22 21:37:00,79.0,66.7,30.08,WSW,248,0.0,0.0,66,0.00,,,0.00,WUHU216HW,2013-06-23 01:37:00,
2013-06-22 21:42:00,78.8,66.5,30.09,WSW,248,0.0,0.0,66,0.00,,,0.00,WUHU216HW,2013-06-23 01:42:00,
2013-06-22 21:47:00,78.8,67.0,30.09,SW,225,0.0,0.0,67,0.00,,,0.00,WUHU216HW,2013-06-23 01:47:00,
2013-06-22 21:52:00,78.7,66.8,30.09,SW,225,0.0,0.0,67,0.00,,,0.00,WUHU216HW,2013-06-23 01:52:00,
2013-06-22 21:57:00,78.5,66.6,30.09,SW,225,0.0,0.0,67,0.00,,,0.00,WUHU216HW,2013-06-23 01:57:00,
2013-06-22 22:02:00,78.1,66.2,30.09,SW,225,0.0,0.0,67,0.00,,,0.00,WUHU216HW,2013-06-23 02:02:00,
2013-06-22 22:07:00,77.9,66.5,30.09,SW,225,0.0,0.0,68,0.00,,,0.00,WUHU216HW,2013-06-23 02:07:00,
2013-06-22 22:12:00,77.8,66.3,30.09,SW,225,0.0,0.0,68,0.00,,,0.00,WUHU216HW,2013-06-23 02:12:00,
2013-06-22 22:17:00,77.8,66.3,30.10,SW,225,0.0,0.0,68,0.00,,,0.00,WUHU216HW,2013-06-23 02:17:00,
2013-06-22 22:22:00,77.4,66.5,30.10,SW,225,0.0,0.0,69,0.00,,,0.00,WUHU216HW,2013-06-23 02:22:00,
2013-06-22 22:27:00,76.9,67.6,30.11,NW,315,0.0,0.0,73,0.00,,,0.00,WUHU216HW,2013-06-23 02:27:00,
2013-06-22 22:32:00,76.5,66.9,30.10,SSW,203,0.0,0.0,72,0.00,,,0.00,WUHU216HW,2013-06-23 02:32:00,
2013-06-22 22:37:00,76.3,66.7,30.10,SW,225,0.0,0.0,72,0.00,,,0.00,WUHU216HW,2013-06-23 02:37:00,
2013-06-22 22:42:00,76.3,66.7,30.10,SSW,203,0.0,0.0,72,0.00,,,0.00,WUHU216HW,2013-06-23 02:42:00,
2013-06-22 22:47:00,76.3,66.7,30.10,SSW,203,0.0,0.0,72,0.00,,,0.00,WUHU216HW,2013-06-23 02:47:00,
2013-06-22 22:52:00,76.1,67.2,30.10,SSW,203,0.0,0.0,74,0.00,,,0.00,WUHU216HW,2013-06-23 02:52:00,
2013-06-22 22:57:00,76.0,67.1,30.10,SW,225,0.0,0.0,74,0.00,,,0.00,WUHU216HW,2013-06-23 02:57:00,
2013-06-22 23:02:00,75.4,67.0,30.10,SW,225,0.0,0.0,75,0.00,,,0.00,WUHU216HW,2013-06-23 03:02:00,
2013-06-22 23:07:00,75.2,66.8,30.10,SW,225,0.0,0.0,75,0.00,,,0.00,WUHU216HW,2013-06-23 03:07:00,
2013-06-22 23:12:00,75.2,66.8,30.10,SW,225,0.0,0.0,75,0.00,,,0.00,WUHU216HW,2013-06-23 03:12:00,
2013-06-22 23:17:00,75.2,66.8,30.10,SW,225,0.0,0.0,75,0.00,,,0.00,WUHU216HW,2013-06-23 03:17:00,
2013-06-22 23:22:00,75.2,66.8,30.10,SW,225,0.0,0.0,75,0.00,,,0.00,WUHU216HW,2013-06-23 03:22:00,
2013-06-22 23:27:00,75.2,66.8,30.10,SW,225,0.0,0.0,75,0.00,,,0.00,WUHU216HW,2013-06-23 03:27:00,
2013-06-22 23:32:00,75.1,66.6,30.12,SW,225,0.0,0.0,75,0.00,,,0.00,WUHU216HW,2013-06-23 03:32:00,
2013-06-22 23:37:00,74.9,67.6,30.12,NNE,23,0.0,0.0,78,0.00,,,0.00,WUHU216HW,2013-06-23 03:37:00,
2013-06-22 23:42:00,74.5,66.9,30.11,ESE,113,0.0,0.0,77,0.00,,,0.00,WUHU216HW,2013-06-23 03:42:00,
2013-06-22 23:47:00,74.5,67.2,30.11,East,90,0.0,0.0,78,0.01,,,0.00,WUHU216HW,2013-06-23 03:47:00,
2013-06-22 23:52:00,74.3,66.7,30.11,East,90,0.0,0.0,77,0.03,,,0.01,WUHU216HW,2013-06-23 03:52:00,
2013-06-22 23:57:00,74.2,66.9,30.12,East,90,0.0,0.0,78,0.06,,,0.05,WUHU216HW,2013-06-23 03:57:00,